Time;durP1;ratioP1;P1;durP2;ratioP2;P2;SDS_P1;SDS_P2;PMS_P1;PMS_P2;Temp;Humidity;BMP_temperature;BMP_pressure;BME280_temperature;BME280_humidity;BME280_pressure;Samples;Min_cycle;Max_cycle;Signal;HPM_P1;HPM_P2
2020/12/24 00:01:50;;;;;;;57.20;29.65;;;;;;;9.86;86.93;98715.84;5096363;28;20040;-47
2020/12/24 00:04:16;;;;;;;57.35;32.20;;;;;;;9.89;86.61;98720.13;5097028;28;20067;-47
2020/12/24 00:06:41;;;;;;;51.33;30.80;;;;;;;9.90;86.79;98721.81;5097117;28;20044;-48
2020/12/24 00:09:07;;;;;;;48.92;26.70;;;;;;;9.95;86.68;98709.41;5097204;28;20079;-47
2020/12/24 00:11:33;;;;;;;48.47;27.05;;;;;;;9.93;86.91;98713.84;5096828;28;20044;-48
2020/12/24 00:13:59;;;;;;;41.40;23.05;;;;;;;9.95;86.96;98702.41;5097593;28;20105;-48
2020/12/24 00:16:26;;;;;;;39.95;23.85;;;;;;;9.98;86.91;98696.22;5097301;28;20047;-48
2020/12/24 00:18:52;;;;;;;41.13;21.83;;;;;;;10.02;86.71;98692.53;5079503;28;20055;-48
2020/12/24 00:21:18;;;;;;;39.53;22.92;;;;;;;10.05;86.58;98702.91;5096022;28;20040;-48
2020/12/24 00:23:44;;;;;;;38.08;21.58;;;;;;;10.06;86.50;98704.59;5095937;28;20048;-48
2020/12/24 00:26:10;;;;;;;36.15;21.67;;;;;;;10.03;86.88;98692.47;5096855;28;20036;-48
2020/12/24 00:28:35;;;;;;;37.80;21.63;;;;;;;10.03;86.71;98704.72;5096822;28;20470;-48
2020/12/24 00:31:01;;;;;;;27.20;17.35;;;;;;;10.01;87.19;98701.31;5097246;28;20051;-48
2020/12/24 00:33:27;;;;;;;27.02;16.17;;;;;;;10.07;87.40;98694.06;5096981;28;20048;-48
2020/12/24 00:35:53;;;;;;;29.08;15.93;;;;;;;10.11;87.29;98694.78;5096983;28;20055;-48
2020/12/24 00:38:20;;;;;;;26.13;14.70;;;;;;;10.18;87.37;98696.25;5079123;28;20119;-48
2020/12/24 00:40:46;;;;;;;23.88;13.93;;;;;;;10.17;87.68;98699.78;5079126;28;20059;-48
2020/12/24 00:43:12;;;;;;;26.90;16.25;;;;;;;10.22;87.59;98700.44;5095618;28;20044;-48
2020/12/24 00:45:38;;;;;;;25.58;15.82;;;;;;;10.18;87.76;98698.88;5078970;28;20032;-48
2020/12/24 00:48:04;;;;;;;24.95;15.38;;;;;;;10.20;87.68;98702.25;5096544;28;20054;-48
2020/12/24 00:50:30;;;;;;;32.42;15.75;;;;;;;10.22;87.67;98702.19;5095793;28;20050;-48
2020/12/24 00:52:57;;;;;;;29.13;16.88;;;;;;;10.24;87.29;98713.47;5078084;28;20051;-48
2020/12/24 00:55:25;;;;;;;22.55;14.77;;;;;;;10.21;87.68;98701.34;5095780;28;20059;-48
2020/12/24 00:57:53;;;;;;;26.23;15.35;;;;;;;10.23;87.27;98707.34;5095677;28;20060;-48
2020/12/24 01:00:20;;;;;;;25.35;14.70;;;;;;;10.27;87.12;98701.13;5078830;28;20117;-48
2020/12/24 01:02:46;;;;;;;25.77;15.98;;;;;;;10.24;87.21;98690.75;5095720;28;20424;-48
2020/12/24 01:05:11;;;;;;;25.23;14.05;;;;;;;10.27;87.26;98703.75;5095258;28;20052;-48
2020/12/24 01:07:38;;;;;;;23.92;14.05;;;;;;;10.33;87.46;98707.00;5095437;28;20115;-48
2020/12/24 01:10:06;;;;;;;22.15;14.35;;;;;;;10.24;87.66;98695.16;5078611;28;20437;-48
2020/12/24 01:12:32;;;;;;;24.02;14.18;;;;;;;10.31;87.47;98699.25;5095475;28;20051;-48
2020/12/24 01:14:58;;;;;;;26.23;14.95;;;;;;;10.34;87.20;98693.88;5096141;28;20097;-48
2020/12/24 01:17:24;;;;;;;23.75;15.38;;;;;;;10.38;87.06;98691.97;5096067;28;20056;-48
2020/12/24 01:19:49;;;;;;;24.40;15.23;;;;;;;10.32;87.06;98680.00;5096132;28;20047;-48
2020/12/24 01:22:16;;;;;;;28.38;15.30;;;;;;;10.39;87.06;98683.22;5095397;28;20055;-48
2020/12/24 01:24:42;;;;;;;27.40;15.52;;;;;;;10.39;86.59;98685.81;5096272;28;20055;-48
2020/12/24 01:27:08;;;;;;;29.27;14.80;;;;;;;10.29;86.64;98682.75;5095139;28;20051;-48
2020/12/24 01:29:34;;;;;;;29.33;14.85;;;;;;;10.23;86.58;98691.66;5095873;28;20047;-48
2020/12/24 01:32:00;;;;;;;26.00;15.80;;;;;;;10.24;87.11;98695.16;5095943;28;20067;-48
2020/12/24 01:34:25;;;;;;;28.73;15.52;;;;;;;10.27;86.73;98693.28;5096018;28;20040;-48
2020/12/24 01:36:51;;;;;;;25.10;14.02;;;;;;;10.27;86.80;98688.06;5095360;28;20048;-48
2020/12/24 01:39:17;;;;;;;26.92;16.25;;;;;;;10.24;86.96;98687.31;5096431;28;20433;-48
2020/12/24 01:41:43;;;;;;;26.48;15.13;;;;;;;10.26;86.84;98680.25;5095871;28;20428;-48
2020/12/24 01:44:09;;;;;;;25.45;15.60;;;;;;;10.28;86.47;98673.19;5078485;28;20087;-48
2020/12/24 01:46:35;;;;;;;25.40;13.85;;;;;;;10.27;86.35;98679.34;5078379;28;20094;-48
2020/12/24 01:49:01;;;;;;;26.95;15.02;;;;;;;10.27;86.38;98669.72;5061618;28;20058;-48
2020/12/24 01:51:30;;;;;;;24.55;13.82;;;;;;;10.32;86.35;98669.53;5095906;28;20032;-48
2020/12/24 01:53:57;;;;;;;23.98;14.30;;;;;;;10.32;86.44;98674.75;5078306;28;20059;-48
2020/12/24 01:56:23;;;;;;;28.00;14.80;;;;;;;10.28;86.07;98678.44;5095153;28;20052;-47
2020/12/24 01:58:50;;;;;;;25.38;13.70;;;;;;;10.29;86.00;98686.19;5095167;28;20048;-48
2020/12/24 02:01:16;;;;;;;24.75;13.27;;;;;;;10.25;86.09;98673.28;5078341;28;20109;-48
2020/12/24 02:03:42;;;;;;;24.65;15.10;;;;;;;10.24;86.02;98675.06;5095565;28;20052;-48
2020/12/24 02:06:09;;;;;;;22.08;13.48;;;;;;;10.27;85.97;98668.88;5082155;28;20352;-48
2020/12/24 02:08:34;;;;;;;21.88;13.18;;;;;;;10.16;86.41;98668.44;5098629;28;20444;-48
2020/12/24 02:11:00;;;;;;;29.63;16.80;;;;;;;10.19;86.64;98676.16;5098347;28;20059;-48
2020/12/24 02:13:26;;;;;;;28.20;15.18;;;;;;;10.14;86.52;98667.63;5099038;28;20076;-48
2020/12/24 02:15:52;;;;;;;23.33;13.43;;;;;;;10.16;86.54;98669.28;5099383;28;20044;-48
2020/12/24 02:18:18;;;;;;;23.67;12.90;;;;;;;10.19;86.27;98673.53;5098505;28;20102;-48
2020/12/24 02:20:45;;;;;;;22.08;12.98;;;;;;;10.13;86.79;98672.03;5099540;28;20357;-48
2020/12/24 02:23:11;;;;;;;21.88;11.63;;;;;;;10.17;86.81;98662.28;5099216;28;20058;-48
2020/12/24 02:25:37;;;;;;;17.73;10.75;;;;;;;10.15;86.94;98651.88;5099230;28;20068;-48
2020/12/24 02:28:04;;;;;;;19.63;11.20;;;;;;;10.20;86.60;98657.75;5099201;28;20036;-48
2020/12/24 02:30:30;;;;;;;19.63;11.50;;;;;;;10.24;86.72;98661.13;5098264;28;20036;-48
2020/12/24 02:32:56;;;;;;;20.27;11.57;;;;;;;10.24;86.49;98648.88;5081525;28;20059;-48
2020/12/24 02:35:22;;;;;;;16.38;10.35;;;;;;;10.23;86.51;98654.16;5099298;28;20059;-48
2020/12/24 02:37:47;;;;;;;17.88;10.07;;;;;;;10.23;86.90;98656.78;5098888;28;20077;-48
2020/12/24 02:40:13;;;;;;;20.63;9.57;;;;;;;10.29;86.49;98662.66;5099232;28;20040;-48
2020/12/24 02:42:39;;;;;;;15.93;9.18;;;;;;;10.25;86.83;98663.66;5098762;28;20513;-48
2020/12/24 02:45:05;;;;;;;15.27;8.88;;;;;;;10.28;86.77;98663.56;5098701;28;20048;-48
2020/12/24 02:47:31;;;;;;;15.45;9.65;;;;;;;10.26;87.18;98656.69;5097762;28;20044;-48
2020/12/24 02:49:57;;;;;;;15.65;8.52;;;;;;;10.32;87.24;98664.28;5081400;28;20051;-48
2020/12/24 02:52:24;;;;;;;16.83;9.30;;;;;;;10.35;87.06;98669.41;5099405;28;20055;-48
2020/12/24 02:54:50;;;;;;;13.30;7.80;;;;;;;10.37;87.23;98661.50;5098454;28;20051;-48
2020/12/24 02:57:16;;;;;;;13.05;7.32;;;;;;;10.36;87.12;98665.00;5081767;28;20134;-48
2020/12/24 02:59:43;;;;;;;12.27;7.10;;;;;;;10.41;87.01;98661.28;5098613;28;20035;-48
2020/12/24 03:02:08;;;;;;;13.85;7.43;;;;;;;10.41;86.64;98661.28;5097651;28;20399;-48
2020/12/24 03:04:34;;;;;;;14.48;7.57;;;;;;;10.37;86.56;98661.50;5098195;28;20498;-48
2020/12/24 03:07:00;;;;;;;12.82;7.18;;;;;;;10.36;86.43;98665.00;5097807;28;20056;-48
2020/12/24 03:09:26;;;;;;;10.90;7.13;;;;;;;10.41;86.11;98660.44;5099095;28;20097;-48
2020/12/24 03:11:52;;;;;;;10.73;6.40;;;;;;;10.33;86.43;98658.13;5098608;28;20048;-48
2020/12/24 03:14:18;;;;;;;9.25;5.63;;;;;;;10.32;86.26;98652.97;5097978;28;20059;-48
2020/12/24 03:16:45;;;;;;;12.55;6.20;;;;;;;10.31;86.11;98654.75;5097405;28;20066;-47
2020/12/24 03:19:11;;;;;;;9.95;5.80;;;;;;;10.29;85.77;98649.56;5098418;28;20048;-48
2020/12/24 03:21:37;;;;;;;11.30;6.30;;;;;;;10.27;86.04;98645.34;5098093;28;20398;-47
2020/12/24 03:24:03;;;;;;;8.02;5.18;;;;;;;10.24;85.84;98645.44;5098327;28;20435;-48
2020/12/24 03:26:29;;;;;;;9.32;6.03;;;;;;;10.18;85.69;98637.84;5098123;28;20057;-48
2020/12/24 03:28:55;;;;;;;8.35;4.95;;;;;;;10.14;85.96;98641.47;5098246;28;20108;-48
2020/12/24 03:31:22;;;;;;;9.40;4.85;;;;;;;10.18;86.06;98635.22;5098097;28;20450;-48
2020/12/24 03:33:48;;;;;;;9.68;5.15;;;;;;;10.15;86.41;98640.56;5096963;28;20094;-48
2020/12/24 03:36:14;;;;;;;5.85;4.47;;;;;;;10.19;86.72;98640.38;5096888;28;20060;-48
2020/12/24 03:38:40;;;;;;;12.93;5.15;;;;;;;10.20;86.38;98644.69;5097779;28;20043;-48
2020/12/24 03:41:06;;;;;;;9.73;4.18;;;;;;;10.19;86.52;98645.59;5097983;28;20121;-48
2020/12/24 03:43:31;;;;;;;6.15;4.25;;;;;;;10.22;86.11;98649.88;5096836;28;20043;-48
2020/12/24 03:45:57;;;;;;;7.30;4.10;;;;;;;10.23;86.11;98652.41;5097900;28;20044;-48
2020/12/24 03:48:23;;;;;;;5.60;4.22;;;;;;;10.23;86.04;98655.03;5096652;28;20362;-48
2020/12/24 03:50:48;;;;;;;6.90;4.25;;;;;;;10.24;85.85;98664.59;5096856;28;20048;-47
2020/12/24 03:53:14;;;;;;;5.10;3.42;;;;;;;10.23;86.19;98662.03;5097741;28;20067;-48
2020/12/24 03:55:40;;;;;;;6.05;3.72;;;;;;;10.27;86.26;98661.88;5096619;28;20052;-48
2020/12/24 03:58:06;;;;;;;7.05;3.50;;;;;;;10.33;85.92;98654.66;5097681;28;20054;-48
2020/12/24 04:00:31;;;;;;;10.77;4.47;;;;;;;10.38;85.70;98652.72;5096697;28;20059;-48
2020/12/24 04:02:57;;;;;;;6.13;4.57;;;;;;;10.34;85.84;98665.09;5097591;28;20051;-48
2020/12/24 04:05:23;;;;;;;7.47;4.70;;;;;;;10.37;85.79;98664.97;5097135;28;20363;-48
2020/12/24 04:07:49;;;;;;;7.65;4.43;;;;;;;10.44;85.49;98660.31;5097117;28;20066;-48
2020/12/24 04:10:16;;;;;;;5.95;3.65;;;;;;;10.45;85.48;98660.25;5097398;28;20113;-47
2020/12/24 04:12:42;;;;;;;6.32;3.83;;;;;;;10.46;85.75;98653.22;5097107;28;20047;-48
2020/12/24 04:15:08;;;;;;;5.47;3.13;;;;;;;10.41;86.06;98644.75;5096515;28;20048;-48
2020/12/24 04:17:33;;;;;;;5.45;3.33;;;;;;;10.41;86.01;98642.13;5097323;28;20075;-48
2020/12/24 04:19:59;;;;;;;6.45;4.05;;;;;;;10.40;86.21;98640.41;5097039;28;20096;-48
2020/12/24 04:22:25;;;;;;;9.52;4.65;;;;;;;10.48;86.15;98641.78;5096864;28;20048;-48
2020/12/24 04:24:51;;;;;;;6.57;4.30;;;;;;;10.55;85.71;98636.28;5097190;28;20055;-48
2020/12/24 04:27:17;;;;;;;9.23;4.20;;;;;;;10.58;85.30;98633.53;5095847;28;20363;-48
2020/12/24 04:29:42;;;;;;;6.38;3.35;;;;;;;10.53;85.19;98639.84;5096826;28;20044;-48
2020/12/24 04:32:09;;;;;;;5.72;3.10;;;;;;;10.52;85.16;98632.88;5096960;28;20044;-48
2020/12/24 04:34:34;;;;;;;8.52;4.43;;;;;;;10.52;85.21;98638.09;5096786;28;20036;-48
2020/12/24 04:37:00;;;;;;;8.00;4.30;;;;;;;10.45;85.17;98636.69;5096665;28;20044;-48
2020/12/24 04:39:26;;;;;;;6.47;3.55;;;;;;;10.45;85.03;98644.53;5096705;28;20065;-47
2020/12/24 04:41:52;;;;;;;6.13;3.85;;;;;;;10.46;84.83;98648.88;5096633;28;20070;-48
2020/12/24 04:44:18;;;;;;;6.75;2.92;;;;;;;10.48;84.80;98643.56;5096585;28;20481;-48
2020/12/24 04:46:44;;;;;;;6.20;2.72;;;;;;;10.45;84.62;98652.38;5096810;28;20067;-48
2020/12/24 04:49:10;;;;;;;4.53;2.92;;;;;;;10.49;84.90;98658.34;5096563;28;20410;-48
2020/12/24 04:51:36;;;;;;;6.32;3.17;;;;;;;10.50;84.61;98655.66;5096682;28;20055;-48
2020/12/24 04:54:01;;;;;;;5.80;3.58;;;;;;;10.55;84.47;98652.84;5096407;28;20060;-48
2020/12/24 04:56:27;;;;;;;5.70;3.30;;;;;;;10.58;84.46;98659.72;5097481;28;20052;-48
2020/12/24 04:58:53;;;;;;;4.65;2.15;;;;;;;10.62;84.25;98662.13;5096366;28;20036;-48
2020/12/24 05:01:19;;;;;;;4.93;2.60;;;;;;;10.63;84.23;98660.38;5096620;28;20063;-48
2020/12/24 05:03:45;;;;;;;6.85;2.92;;;;;;;10.64;84.38;98657.69;5096320;28;20048;-48
2020/12/24 05:06:20;;;;;;;4.10;2.35;;;;;;;10.63;84.08;98660.38;5096363;28;20356;-48
2020/12/24 05:08:53;;;;;;;2.42;2.20;;;;;;;10.65;84.17;98659.38;5096292;28;20044;-48
2020/12/24 05:11:29;;;;;;;6.55;2.75;;;;;;;10.66;84.14;98647.13;5096409;28;20157;-48
2020/12/24 05:13:56;;;;;;;3.13;2.05;;;;;;;10.66;84.07;98655.84;5096816;28;20479;-48
2020/12/24 05:16:21;;;;;;;2.00;1.58;;;;;;;10.68;84.13;98642.69;5096085;28;20056;-48
2020/12/24 05:18:47;;;;;;;4.40;2.42;;;;;;;10.69;83.81;98641.75;5096383;28;20047;-48
2020/12/24 05:21:34;;;;;;;3.78;1.90;;;;;;;10.74;82.83;98642.41;5095214;28;20058;-48
2020/12/24 05:23:59;;;;;;;3.20;2.38;;;;;;;10.69;83.39;98633.91;5095958;28;20079;-48
2020/12/24 05:26:25;;;;;;;5.40;2.30;;;;;;;10.63;83.44;98634.19;5096122;28;20399;-48
2020/12/24 05:28:51;;;;;;;3.95;2.33;;;;;;;10.61;83.37;98631.63;5096040;28;20054;-48
2020/12/24 05:31:32;;;;;;;6.47;3.20;;;;;;;10.57;82.85;98624.84;5095928;28;20048;-48
2020/12/24 05:33:58;;;;;;;5.15;2.45;;;;;;;10.46;83.46;98643.63;5096302;28;20052;-48
2020/12/24 05:36:24;;;;;;;5.18;2.58;;;;;;;10.46;83.37;98640.13;5096258;28;20353;-48
2020/12/24 05:38:50;;;;;;;4.22;2.25;;;;;;;10.47;83.46;98627.00;5097089;28;20310;-48
2020/12/24 05:41:33;;;;;;;4.22;1.98;;;;;;;10.46;83.06;98632.28;5099967;28;20048;-48
2020/12/24 05:44:12;;;;;;;2.58;1.95;;;;;;;10.43;83.07;98633.28;5100030;28;20055;-48
2020/12/24 05:46:39;;;;;;;2.75;2.40;;;;;;;10.42;83.16;98639.44;5099989;28;20139;-48
2020/12/24 05:49:18;;;;;;;3.97;2.10;;;;;;;10.39;83.54;98641.31;5099316;28;20059;-48
2020/12/24 05:52:09;;;;;;;3.35;2.08;;;;;;;10.34;83.02;98633.69;5099465;28;20048;-48
2020/12/24 05:54:38;;;;;;;2.65;2.00;;;;;;;10.26;83.82;98622.69;5099248;28;20048;-48
2020/12/24 05:57:05;;;;;;;3.28;2.22;;;;;;;10.24;83.83;98627.09;5100010;28;20047;-48
2020/12/24 05:59:30;;;;;;;3.53;1.90;;;;;;;10.25;83.57;98628.81;5100004;28;20047;-48
2020/12/24 06:02:14;;;;;;;4.15;1.90;;;;;;;10.16;83.28;98630.03;5099018;28;20051;-48
2020/12/24 06:04:40;;;;;;;3.03;1.60;;;;;;;10.12;83.85;98630.22;5099660;28;20130;-48
2020/12/24 06:07:09;;;;;;;3.40;1.92;;;;;;;10.15;83.79;98624.88;5099829;28;20140;-48
2020/12/24 06:09:37;;;;;;;2.38;1.83;;;;;;;10.11;83.84;98618.03;5099561;28;20413;-48
2020/12/24 06:12:18;;;;;;;2.70;1.98;;;;;;;10.05;83.68;98627.03;5099432;28;20067;-48
2020/12/24 06:14:47;;;;;;;2.08;1.58;;;;;;;10.05;83.59;98629.63;5099505;28;20505;-48
2020/12/24 06:17:18;;;;;;;3.28;2.05;;;;;;;10.04;84.13;98634.03;5099343;28;20448;-48
2020/12/24 06:19:43;;;;;;;2.60;2.05;;;;;;;10.08;83.85;98642.59;5098530;28;20114;-48
2020/12/24 06:22:09;;;;;;;3.88;1.83;;;;;;;10.05;83.96;98637.50;5098234;28;20404;-48
2020/12/24 06:24:40;;;;;;;1.95;1.80;;;;;;;10.05;83.89;98640.09;5099466;28;20066;-48
2020/12/24 06:27:23;;;;;;;3.22;1.95;;;;;;;9.91;84.44;98632.84;5098656;28;20063;-48
2020/12/24 06:29:50;;;;;;;2.97;2.15;;;;;;;9.92;84.36;98634.53;5098356;28;20044;-48
2020/12/24 06:32:18;;;;;;;1.60;1.50;;;;;;;9.98;84.11;98634.28;5098406;28;20336;-48
2020/12/24 06:34:43;;;;;;;2.53;1.90;;;;;;;9.97;84.07;98631.72;5099329;28;20052;-48
2020/12/24 06:37:13;;;;;;;1.77;1.27;;;;;;;9.96;84.23;98627.41;5098976;28;20128;-48
2020/12/24 06:39:40;;;;;;;2.03;1.52;;;;;;;10.00;84.27;98615.88;5099261;28;20494;-48
2020/12/24 06:42:06;;;;;;;3.88;1.73;;;;;;;10.01;83.79;98621.06;5099141;28;20048;-48
2020/12/24 06:44:46;;;;;;;2.47;1.95;;;;;;;9.99;83.69;98604.56;5099095;28;20048;-48
2020/12/24 06:47:16;;;;;;;2.00;1.60;;;;;;;10.00;84.34;98613.28;5098267;28;20326;-48
2020/12/24 06:49:42;;;;;;;2.88;2.17;;;;;;;9.99;84.11;98611.59;5098666;28;20058;-48
2020/12/24 06:52:07;;;;;;;2.17;1.98;;;;;;;9.99;84.20;98608.97;5098421;28;20048;-48
2020/12/24 06:54:33;;;;;;;3.13;1.95;;;;;;;9.95;84.23;98618.72;5098996;28;20058;-48
2020/12/24 06:57:21;;;;;;;2.33;2.00;;;;;;;9.98;83.81;98615.97;5098900;28;20060;-48
2020/12/24 06:59:48;;;;;;;1.88;1.52;;;;;;;9.96;84.07;98616.94;5097963;28;20048;-48
2020/12/24 07:02:24;;;;;;;2.42;1.92;;;;;;;10.00;83.81;98624.56;5098476;28;20044;-48
2020/12/24 07:04:50;;;;;;;4.07;2.50;;;;;;;10.00;84.27;98606.28;5098234;28;20060;-48
2020/12/24 07:07:43;;;;;;;8.02;3.75;;;;;;;10.02;83.46;98603.59;5099126;28;20322;-48
2020/12/24 07:10:08;;;;;;;9.90;4.13;;;;;;;9.96;84.33;98593.41;5098218;28;20040;-48
2020/12/24 07:12:34;;;;;;;13.32;4.70;;;;;;;10.01;84.52;98589.69;5098497;28;20063;-48
2020/12/24 07:15:19;;;;;;;15.48;5.15;;;;;;;10.05;83.88;98588.63;5098224;28;20439;-48
2020/12/24 07:17:45;;;;;;;13.65;5.18;;;;;;;10.11;83.95;98586.66;5098474;28;20063;-48
2020/12/24 07:20:15;;;;;;;12.55;4.55;;;;;;;10.14;83.74;98590.00;5097616;28;20048;-48
2020/12/24 07:22:42;;;;;;;6.18;2.67;;;;;;;10.11;83.95;98592.75;5097605;28;20127;-48
2020/12/24 07:25:08;;;;;;;5.10;2.63;;;;;;;10.15;83.79;98603.94;5098049;28;20047;-48
2020/12/24 07:27:48;;;;;;;9.52;4.70;;;;;;;10.16;83.13;98598.63;5098828;28;20044;-48
2020/12/24 07:30:14;;;;;;;17.08;8.18;;;;;;;10.14;83.51;98595.25;5098018;28;20040;-48
2020/12/24 07:32:40;;;;;;;14.00;7.22;;;;;;;10.16;83.36;98603.03;5097278;28;20063;-48
2020/12/24 07:35:06;;;;;;;16.55;9.90;;;;;;;10.11;83.42;98612.81;5097980;28;20036;-55
2020/12/24 07:37:32;;;;;;;12.25;9.00;;;;;;;10.17;83.45;98620.41;5098408;28;20436;-55
2020/12/24 07:39:57;;;;;;;13.52;8.80;;;;;;;10.20;82.93;98625.50;5097220;28;20052;-55
2020/12/24 07:42:23;;;;;;;13.60;8.68;;;;;;;10.19;83.00;98621.22;5097854;28;20394;-48
2020/12/24 07:44:49;;;;;;;7.10;5.60;;;;;;;10.17;83.09;98628.25;5097776;28;20513;-47
2020/12/24 07:47:15;;;;;;;4.55;3.40;;;;;;;10.19;82.83;98629.06;5097913;28;20044;-48
2020/12/24 07:49:50;;;;;;;6.03;3.22;;;;;;;10.19;82.75;98616.81;5097030;28;20353;-48
2020/12/24 07:52:16;;;;;;;5.25;2.67;;;;;;;10.18;82.92;98616.91;5096584;28;20119;-48
2020/12/24 07:54:42;;;;;;;4.47;2.92;;;;;;;10.21;82.66;98616.78;5097705;28;20059;-48
2020/12/24 07:57:08;;;;;;;6.20;3.33;;;;;;;10.21;82.97;98615.00;5096524;28;20395;-48
2020/12/24 07:59:34;;;;;;;8.63;3.85;;;;;;;10.24;82.65;98611.41;5097657;28;20062;-48
2020/12/24 08:02:06;;;;;;;5.60;2.47;;;;;;;10.29;82.44;98597.22;5079784;28;20374;-48
2020/12/24 08:04:31;;;;;;;3.92;3.08;;;;;;;10.24;82.56;98593.09;5097076;28;20113;-48
2020/12/24 08:06:57;;;;;;;4.53;3.13;;;;;;;10.27;82.53;98572.91;5097787;28;20047;-48
2020/12/24 08:09:23;;;;;;;4.45;3.22;;;;;;;10.36;82.06;98570.78;5096683;28;20046;-48
2020/12/24 08:11:59;;;;;;;4.25;2.85;;;;;;;10.40;81.78;98578.47;5097077;28;20056;-48
2020/12/24 08:14:26;;;;;;;3.70;2.88;;;;;;;10.38;81.83;98580.28;5097943;28;20332;-48
2020/12/24 08:16:52;;;;;;;6.32;4.03;;;;;;;10.45;81.75;98575.63;5097221;28;20047;-48
2020/12/24 08:19:28;;;;;;;6.35;3.60;;;;;;;10.43;81.68;98562.63;5097302;28;20048;-48
2020/12/24 08:22:02;;;;;;;8.27;3.67;;;;;;;10.42;81.80;98558.28;5080450;28;20047;-55
2020/12/24 08:24:28;;;;;;;3.65;3.35;;;;;;;10.44;81.57;98573.94;5097292;28;20052;-48
2020/12/24 08:26:54;;;;;;;5.18;4.15;;;;;;;10.48;81.39;98576.34;5096298;28;20058;-48
2020/12/24 08:29:20;;;;;;;5.32;3.72;;;;;;;10.50;81.51;98589.38;5079742;28;20043;-48
2020/12/24 08:31:46;;;;;;;8.25;4.35;;;;;;;10.49;81.59;98588.50;5096107;28;20044;-48
2020/12/24 08:34:12;;;;;;;12.90;5.60;;;;;;;10.52;81.42;98579.66;5097052;28;20127;-47
2020/12/24 08:36:43;;;;;;;6.45;4.35;;;;;;;10.59;81.08;98590.72;5096187;28;20048;-48
2020/12/24 08:39:10;;;;;;;6.25;4.25;;;;;;;10.64;81.20;98600.06;5096659;28;20048;-48
2020/12/24 08:41:39;;;;;;;16.58;4.57;;;;;;;10.73;80.74;98604.06;5096835;28;20044;-48
2020/12/24 08:44:05;;;;;;;7.00;3.90;;;;;;;10.74;80.51;98603.13;5097262;28;20047;-56
2020/12/24 08:46:31;;;;;;;8.32;4.13;;;;;;;10.82;80.39;98594.91;5096847;28;20047;-56
2020/12/24 08:48:56;;;;;;;6.80;3.90;;;;;;;10.80;80.76;98586.31;5096797;28;20051;-56
2020/12/24 08:51:22;;;;;;;6.32;3.22;;;;;;;10.83;80.37;98607.13;5096214;28;20040;-55
2020/12/24 08:53:49;;;;;;;5.25;3.20;;;;;;;10.87;80.08;98598.19;5096780;28;20031;-55
2020/12/24 08:56:16;;;;;;;5.30;2.47;;;;;;;10.89;80.23;98597.22;5096695;28;20113;-56
2020/12/24 08:58:53;;;;;;;3.95;2.60;;;;;;;10.92;79.17;98602.31;5096438;28;20157;-56
2020/12/24 09:01:19;;;;;;;7.00;3.38;;;;;;;10.87;79.94;98617.38;5096707;28;20044;-55
2020/12/24 09:03:46;;;;;;;7.78;4.60;;;;;;;10.86;80.13;98625.31;5096406;28;20056;-56
2020/12/24 09:06:12;;;;;;;5.22;3.15;;;;;;;10.91;79.99;98610.22;5095785;28;20087;-55
2020/12/24 09:08:47;;;;;;;7.10;2.70;;;;;;;10.93;79.57;98622.34;5096329;28;20055;-56
2020/12/24 09:11:26;;;;;;;8.07;3.50;;;;;;;10.87;79.71;98625.25;5096447;28;20054;-56
2020/12/24 09:13:59;;;;;;;7.07;4.00;;;;;;;10.88;79.57;98621.69;5094700;28;20048;-55
2020/12/24 09:16:25;;;;;;;9.18;3.72;;;;;;;10.88;80.13;98612.97;5096204;28;20044;-55
2020/12/24 09:19:04;;;;;;;5.53;2.78;;;;;;;10.98;79.08;98625.63;5096296;28;20097;-54
2020/12/24 09:21:30;;;;;;;5.25;2.53;;;;;;;11.02;79.07;98623.72;5096246;28;20048;-55
2020/12/24 09:24:09;;;;;;;4.28;3.13;;;;;;;10.99;78.81;98605.50;5096381;28;20131;-56
2020/12/24 09:26:45;;;;;;;4.97;2.97;;;;;;;10.99;79.17;98619.44;5095236;28;20052;-55
2020/12/24 09:29:11;;;;;;;17.45;8.68;;;;;;;10.98;79.13;98629.97;5096336;28;20052;-55
2020/12/24 09:31:37;;;;;;;5.15;3.33;;;;;;;11.05;78.95;98622.69;5096206;28;20101;-56
2020/12/24 09:34:03;;;;;;;7.30;4.90;;;;;;;10.96;79.55;98622.22;5096341;28;20401;-48
2020/12/24 09:36:29;;;;;;;8.65;4.97;;;;;;;10.98;79.52;98611.66;5095375;28;20349;-48
2020/12/24 09:38:55;;;;;;;17.90;11.40;;;;;;;10.98;79.30;98598.53;5096544;28;20421;-48
2020/12/24 09:41:20;;;;;;;16.45;10.90;;;;;;;11.05;78.36;98594.75;5096278;28;20100;-48
2020/12/24 09:43:46;;;;;;;9.13;5.50;;;;;;;11.13;77.47;98597.00;5096273;28;20047;-48
2020/12/24 09:46:15;;;;;;;10.30;5.35;;;;;;;11.04;78.08;98605.28;5095857;28;20139;-48
2020/12/24 09:48:41;;;;;;;8.23;4.72;;;;;;;10.98;78.33;98574.97;5096145;28;20063;-48
2020/12/24 09:51:07;;;;;;;13.05;5.68;;;;;;;11.00;78.02;98571.38;5095767;28;20044;-48
2020/12/24 09:53:33;;;;;;;18.75;9.55;;;;;;;11.14;77.60;98568.09;5095843;28;20059;-48
2020/12/24 09:55:58;;;;;;;13.52;6.88;;;;;;;11.10;77.63;98587.50;5096638;28;20048;-48
2020/12/24 09:58:24;;;;;;;6.82;4.32;;;;;;;11.18;76.68;98587.16;5096004;28;20056;-48
2020/12/24 10:00:50;;;;;;;6.57;2.83;;;;;;;11.12;76.55;98585.69;5095633;28;20067;-48
2020/12/24 10:03:16;;;;;;;9.73;5.63;;;;;;;11.10;76.71;98573.56;5095827;28;20402;-48
2020/12/24 10:05:41;;;;;;;9.95;7.57;;;;;;;11.08;76.26;98550.06;5096082;28;20040;-48
2020/12/24 10:08:08;;;;;;;46.22;28.33;;;;;;;11.05;76.14;98557.19;5096011;28;20072;-48
2020/12/24 10:10:33;;;;;;;14.50;9.40;;;;;;;11.17;75.06;98533.88;5096264;28;20040;-48
2020/12/24 10:12:59;;;;;;;7.35;4.47;;;;;;;11.10;75.14;98531.63;5095855;28;20052;-48
2020/12/24 10:15:25;;;;;;;6.38;2.80;;;;;;;11.07;74.94;98544.88;5095766;28;20040;-48
2020/12/24 10:17:51;;;;;;;9.52;5.53;;;;;;;11.00;75.25;98539.06;5095605;28;20452;-48
2020/12/24 10:20:16;;;;;;;4.80;3.60;;;;;;;10.96;75.52;98530.50;5095043;28;20185;-48
2020/12/24 10:22:42;;;;;;;4.25;1.77;;;;;;;11.05;74.84;98541.47;5095462;28;20433;-48
2020/12/24 10:25:08;;;;;;;5.75;1.98;;;;;;;10.99;75.15;98537.38;5096983;28;20051;-48
2020/12/24 10:27:35;;;;;;;3.42;1.75;;;;;;;11.01;74.50;98535.53;5081636;28;20051;-48
2020/12/24 10:30:01;;;;;;;3.25;1.63;;;;;;;11.02;74.12;98537.25;5064968;28;20047;-48
2020/12/24 10:32:27;;;;;;;3.88;1.90;;;;;;;11.02;73.52;98537.25;5099310;28;20048;-48
2020/12/24 10:34:52;;;;;;;3.50;1.77;;;;;;;11.05;72.96;98529.25;5099337;28;20062;-48
2020/12/24 10:37:19;;;;;;;5.63;2.70;;;;;;;10.99;73.37;98524.28;5099275;28;20447;-48
2020/12/24 10:39:45;;;;;;;8.85;4.80;;;;;;;10.98;72.91;98525.19;5099018;28;20119;-48
2020/12/24 10:42:11;;;;;;;5.22;3.22;;;;;;;11.00;72.69;98518.97;5098126;28;20123;-48
2020/12/24 10:44:37;;;;;;;10.63;4.22;;;;;;;10.95;72.33;98510.50;5099167;28;20079;-48
2020/12/24 10:47:04;;;;;;;8.95;4.68;;;;;;;11.02;71.42;98504.94;5099154;28;20337;-48
2020/12/24 10:49:30;;;;;;;10.63;4.05;;;;;;;11.01;71.36;98488.38;5098716;28;20048;-48
2020/12/24 10:51:56;;;;;;;6.80;3.38;;;;;;;10.92;71.46;98484.44;5098944;28;20048;-48
2020/12/24 10:54:22;;;;;;;7.47;3.70;;;;;;;11.00;71.50;98503.25;5098607;28;20052;-48
2020/12/24 10:56:48;;;;;;;7.95;4.25;;;;;;;11.08;70.99;98475.81;5098940;28;20052;-48
2020/12/24 10:59:14;;;;;;;5.47;3.35;;;;;;;11.01;70.97;98480.50;5098744;28;20044;-48
2020/12/24 11:01:49;;;;;;;7.85;4.40;;;;;;;11.08;70.47;98495.03;5081177;28;20048;-48
2020/12/24 11:04:16;;;;;;;8.15;3.83;;;;;;;11.07;70.28;98495.94;5098291;28;20066;-48
2020/12/24 11:06:45;;;;;;;6.13;3.30;;;;;;;11.05;70.31;98503.03;5097919;28;20047;-57
2020/12/24 11:09:12;;;;;;;6.25;3.05;;;;;;;11.11;69.31;98494.88;5098384;28;20059;-56
2020/12/24 11:11:38;;;;;;;6.28;3.63;;;;;;;11.08;69.36;98505.53;5098556;28;20083;-56
2020/12/24 11:14:04;;;;;;;5.05;3.03;;;;;;;11.13;68.82;98510.53;5097645;28;20040;-57
2020/12/24 11:16:29;;;;;;;5.15;3.08;;;;;;;11.06;69.63;98515.22;5098547;28;20082;-57
2020/12/24 11:18:55;;;;;;;4.07;2.05;;;;;;;11.11;68.92;98523.69;5098236;28;20040;-56
2020/12/24 11:21:21;;;;;;;7.63;3.42;;;;;;;11.04;69.67;98529.31;5097525;28;20055;-57
2020/12/24 11:23:47;;;;;;;6.13;3.35;;;;;;;11.06;69.46;98522.22;5097534;28;20048;-56
2020/12/24 11:26:25;;;;;;;5.18;1.88;;;;;;;11.09;68.90;98522.94;5080731;28;20051;-56
2020/12/24 11:28:53;;;;;;;4.53;2.55;;;;;;;11.04;69.47;98518.81;5097466;28;20353;-57
2020/12/24 11:31:26;;;;;;;7.50;4.75;;;;;;;11.06;69.54;98530.09;5098215;28;20086;-56